Time;durP1;ratioP1;P1;durP2;ratioP2;P2;SDS_P1;SDS_P2;PMS_P1;PMS_P2;Temp;Humidity;BMP_temperature;BMP_pressure;BME280_temperature;BME280_humidity;BME280_pressure;Samples;Min_cycle;Max_cycle;Signal;HPM_P1;HPM_P2
2020/12/20 00:01:51;;;;;;;12.50;5.25;;;;;;;;;;5052569;28;20325;-66
2020/12/20 00:04:17;;;;;;;17.85;6.55;;;;;;;;;;5052174;28;20041;-67
2020/12/20 00:06:45;;;;;;;11.00;5.30;;;13.90;64.00;;;;;;5052512;28;20079;-68
2020/12/20 00:09:18;;;;;;;8.38;5.03;;;13.90;63.90;;;;;;5052708;28;20075;-68
2020/12/20 00:11:46;;;;;;;10.25;4.93;;;13.90;64.00;;;;;;5052435;28;20045;-68
2020/12/20 00:14:28;;;;;;;11.85;4.28;;;13.90;64.00;;;;;;5052308;28;20108;-67
2020/12/20 00:17:02;;;;;;;7.40;4.40;;;13.90;63.80;;;;;;5052809;28;20067;-68
2020/12/20 00:19:28;;;;;;;11.70;4.93;;;14.10;63.40;;;;;;5052590;28;20021;-67
2020/12/20 00:21:56;;;;;;;9.68;4.88;;;14.00;63.30;;;;;;5052540;28;20536;-67
2020/12/20 00:24:23;;;;;;;14.55;5.13;;;;;;;;;;5052409;28;20025;-68
2020/12/20 00:26:49;;;;;;;8.73;4.50;;;;;;;;;;5052389;28;20036;-68
2020/12/20 00:29:15;;;;;;;7.85;4.35;;;;;;;;;;5051974;28;20112;-68
2020/12/20 00:31:42;;;;;;;12.35;4.65;;;;;;;;;;5052263;28;20471;-69
2020/12/20 00:34:08;;;;;;;8.32;4.18;;;;;;;;;;5052519;28;20116;-68
2020/12/20 00:36:34;;;;;;;6.43;4.07;;;;;;;;;;5052020;28;20051;-68
2020/12/20 00:39:01;;;;;;;10.40;4.68;;;;;;;;;;5052092;28;20036;-69
2020/12/20 00:41:28;;;;;;;13.98;5.53;;;;;;;;;;5050701;28;20043;-67
2020/12/20 00:43:54;;;;;;;;;;;14.10;63.00;;;;;;5052470;28;20036;-69
2020/12/20 00:46:20;;;;;;;8.35;3.83;;;;;;;;;;5052171;28;20301;-67
2020/12/20 00:48:46;;;;;;;7.15;3.90;;;;;;;;;;5053643;28;20032;-67
2020/12/20 00:51:12;;;;;;;9.98;4.53;;;;;;;;;;5050933;28;20048;-68
2020/12/20 00:53:39;;;;;;;8.35;4.25;;;14.00;63.60;;;;;;5051429;28;20214;-67
2020/12/20 00:56:12;;;;;;;10.90;4.53;;;13.90;63.70;;;;;;5050836;28;20029;-67
2020/12/20 00:58:39;;;;;;;7.50;4.22;;;;;;;;;;5050163;28;20040;-67
2020/12/20 01:01:05;;;;;;;9.70;4.07;;;;;;;;;;5050502;28;20056;-67
2020/12/20 01:03:32;;;;;;;6.93;4.03;;;;;;;;;;5050594;28;20112;-68
2020/12/20 01:05:58;;;;;;;10.07;4.53;;;;;;;;;;5050197;28;20036;-67
2020/12/20 01:08:26;;;;;;;12.70;4.07;;;;;;;;;;5050263;28;20487;-67
2020/12/20 01:10:53;;;;;;;7.90;3.40;;;;;;;;;;5033530;28;20055;-68
2020/12/20 01:13:19;;;;;;;8.20;3.80;;;;;;;;;;5050132;28;20035;-67
2020/12/20 01:15:47;;;;;;;9.75;4.00;;;;;;;;;;5050025;28;20033;-68
2020/12/20 01:18:13;;;;;;;8.15;3.63;;;;;;;;;;5050407;28;20479;-66
2020/12/20 01:20:40;;;;;;;10.88;3.95;;;;;;;;;;5050401;28;20043;-67
2020/12/20 01:23:07;;;;;;;11.52;4.20;;;;;;;;;;5050114;28;20021;-67
2020/12/20 01:25:34;;;;;;;7.63;4.07;;;;;;;;;;5050134;28;20025;-67
2020/12/20 01:28:12;;;;;;;11.15;4.38;;;;;;;;;;5049870;28;20029;-68
2020/12/20 01:30:41;;;;;;;6.53;3.60;;;;;;;;;;5044817;28;20113;-67
2020/12/20 01:33:07;;;;;;;10.65;4.22;;;;;;;;;;5048033;28;20032;-68
2020/12/20 01:35:43;;;;;;;6.30;3.42;;;;;;;;;;5049725;28;20432;-68
2020/12/20 01:38:09;;;;;;;10.25;3.85;;;;;;;;;;5051300;28;20407;-68
2020/12/20 01:40:37;;;;;;;11.60;4.00;;;;;;;;;;5049731;28;20491;-67
2020/12/20 01:43:03;;;;;;;9.20;4.10;;;;;;;;;;5049603;28;20057;-68
2020/12/20 01:45:34;;;;;;;11.27;4.60;;;;;;;;;;5050038;28;20036;-68
2020/12/20 01:48:03;;;;;;;9.23;3.63;;;14.20;62.90;;;;;;5050692;28;20444;-68
2020/12/20 01:50:32;;;;;;;9.23;3.63;;;;;;;;;;5049669;28;20051;-67
2020/12/20 01:52:58;;;;;;;9.15;4.35;;;;;;;;;;5050789;28;20029;-67
2020/12/20 01:55:25;;;;;;;10.13;3.85;;;;;;;;;;5049723;28;20029;-67
2020/12/20 01:58:01;;;;;;;;;;;14.40;61.70;;;;;;5030280;28;20047;-66
2020/12/20 02:01:00;;;;;;;6.80;3.50;;;;;;;;;;5028741;28;19916;-67
2020/12/20 02:03:45;;;;;;;9.10;3.85;;;;;;;;;;5011963;28;20117;-67
2020/12/20 02:06:18;;;;;;;9.80;4.07;;;;;;;;;;5012071;28;20065;-66
2020/12/20 02:08:53;;;;;;;10.30;4.15;;;;;;;;;;5012215;28;20101;-67
2020/12/20 02:11:20;;;;;;;12.15;4.00;;;;;;;;;;5012236;28;20088;-66
2020/12/20 02:13:52;;;;;;;12.25;4.38;;;14.40;61.80;;;;;;5011873;28;20487;-66
2020/12/20 02:16:23;;;;;;;8.80;4.40;;;14.00;62.80;;;;;;5012041;28;20103;-69
2020/12/20 02:18:50;;;;;;;9.93;4.10;;;14.10;62.60;;;;;;5012175;28;20109;-67
2020/12/20 02:21:25;;;;;;;9.25;4.07;;;14.00;62.50;;;;;;5009196;28;20553;-67
2020/12/20 02:23:59;;;;;;;7.22;3.78;;;;;;;;;;5009393;28;20304;-68
2020/12/20 02:26:33;;;;;;;8.52;4.50;;;;;;;;;;5029085;28;20523;-68
2020/12/20 02:28:59;;;;;;;;;;;13.90;63.20;;;;;;5015428;28;20077;-65
2020/12/20 02:31:29;;;;;;;9.25;3.97;;;;;;;;;;5032435;28;20023;-67
2020/12/20 02:33:58;;;;;;;7.80;4.00;;;;;;;;;;5015575;28;20033;-67
2020/12/20 02:36:26;;;;;;;10.98;4.65;;;;;;;;;;5029580;28;20044;-68
2020/12/20 02:38:52;;;;;;;15.20;4.68;;;;;;;;;;5053284;28;20068;-67
2020/12/20 02:41:31;;;;;;;9.52;4.45;;;;;;;;;;5054272;28;20053;-67
2020/12/20 02:43:59;;;;;;;17.23;4.35;;;;;;;;;;5053235;28;20091;-67
2020/12/20 02:46:26;;;;;;;11.88;4.35;;;14.00;62.60;;;;;;5053097;28;20086;-66
2020/12/20 02:48:57;;;;;;;12.63;4.35;;;;;;;;;;5053767;28;20041;-67
2020/12/20 02:51:24;;;;;;;7.03;3.67;;;;;;;;;;5053477;28;20032;-67
2020/12/20 02:53:51;;;;;;;9.77;3.92;;;;;;;;;;5053123;28;20112;-67
2020/12/20 02:56:27;;;;;;;8.80;4.03;;;;;;;;;;5052975;28;20092;-67
2020/12/20 02:58:57;;;;;;;10.52;4.07;;;;;;;;;;5052849;28;20045;-67
2020/12/20 03:01:26;;;;;;;12.70;4.63;;;;;;;;;;5052941;28;20028;-67
2020/12/20 03:03:52;;;;;;;;;;;14.40;61.30;;;;;;5053423;28;20043;-67
2020/12/20 03:06:20;;;;;;;13.68;4.18;;;;;;;;;;5035982;28;19963;-67
2020/12/20 03:08:48;;;;;;;8.07;4.05;;;;;;;;;;5052768;28;20040;-68
2020/12/20 03:11:15;;;;;;;12.43;4.45;;;;;;;;;;5052679;28;20056;-67
2020/12/20 03:13:42;;;;;;;7.53;4.07;;;;;;;;;;5053664;28;20036;-67
2020/12/20 03:16:08;;;;;;;9.75;4.25;;;;;;;;;;5052799;28;20551;-68
2020/12/20 03:18:37;;;;;;;10.68;4.10;;;;;;;;;;5052407;28;20036;-67
2020/12/20 03:21:05;;;;;;;9.52;3.95;;;;;;;;;;5052477;28;20029;-67
2020/12/20 03:23:42;;;;;;;9.75;3.47;;;;;;;;;;5052103;28;20032;-66
2020/12/20 03:26:27;;;;;;;9.15;4.00;;;14.50;61.30;;;;;;5053559;28;20481;-66
2020/12/20 03:29:15;;;;;;;10.20;4.10;;;;;;;;;;5052317;28;20039;-69
2020/12/20 03:31:47;;;;;;;8.35;4.25;;;;;;;;;;5053403;28;20426;-66
2020/12/20 03:34:40;;;;;;;7.78;3.72;;;;;;;;;;5051140;28;20123;-67
2020/12/20 03:37:22;;;;;;;10.95;4.35;;;;;;;;;;5051944;28;20049;-68
2020/12/20 03:40:04;;;;;;;10.80;4.45;;;14.40;61.70;;;;;;5052122;28;20099;-67
2020/12/20 03:42:32;;;;;;;10.48;3.70;;;;;;;;;;5051790;28;20090;-67
2020/12/20 03:44:58;;;;;;;9.90;4.30;;;;;;;;;;5053476;28;20033;-67
2020/12/20 03:47:24;;;;;;;9.88;4.20;;;;;;;;;;5053298;28;20467;-68
2020/12/20 03:49:51;;;;;;;;;;;14.40;61.20;;;;;;5052414;28;20037;-66
2020/12/20 03:52:19;;;;;;;9.70;3.90;;;;;;;;;;5068662;28;19970;-66
2020/12/20 03:54:59;;;;;;;10.43;4.03;;;;;;;;;;5051768;28;20049;-67
2020/12/20 03:57:26;;;;;;;9.85;3.75;;;;;;;;;;5052013;28;20094;-68
2020/12/20 03:59:53;;;;;;;11.43;3.88;;;;;;;;;;5035328;28;20043;-67
2020/12/20 04:02:20;;;;;;;11.73;4.03;;;;;;;;;;5053176;28;20037;-67
2020/12/20 04:04:46;;;;;;;7.53;3.80;;;;;;;;;;5051780;28;20040;-67
2020/12/20 04:07:12;;;;;;;8.05;3.80;;;;;;;;;;5051552;28;20100;-68
2020/12/20 04:09:44;;;;;;;5.95;3.92;;;;;;;;;;5051362;28;20129;-68
2020/12/20 04:12:16;;;;;;;11.70;4.60;;;;;;;;;;5051563;28;20110;-67
2020/12/20 04:14:43;;;;;;;13.65;3.88;;;;;;;;;;5051513;28;20029;-67
2020/12/20 04:17:10;;;;;;;14.02;4.25;;;;;;;;;;5051410;28;20037;-68
2020/12/20 04:19:37;;;;;;;13.60;3.95;;;;;;;;;;5051492;28;20021;-67
2020/12/20 04:22:12;;;;;;;7.00;3.65;;;;;;;;;;5051162;28;20025;-67
2020/12/20 04:25:01;;;;;;;10.50;4.05;;;;;;;;;;5010349;28;20041;-67
2020/12/20 04:27:38;;;;;;;10.93;4.20;;;;;;;;;;5010427;28;20436;-68
2020/12/20 04:30:05;;;;;;;9.50;4.35;;;14.20;61.80;;;;;;5010246;28;20420;-67
2020/12/20 04:32:32;;;;;;;11.15;4.07;;;;;;;;;;4994143;28;20507;-67
2020/12/20 04:34:59;;;;;;;13.30;4.22;;;;;;;;;;5010239;28;20045;-68
2020/12/20 04:37:25;;;;;;;9.95;4.43;;;;;;;;;;5010291;28;20065;-67
2020/12/20 04:40:06;;;;;;;15.38;3.95;;;;;;;;;;5010492;28;20431;-67
2020/12/20 04:42:40;;;;;;;12.73;4.13;;;14.10;62.50;;;;;;5009875;28;20050;-68
2020/12/20 04:45:08;;;;;;;6.80;4.28;;;;;;;;;;4993856;28;20049;-69
2020/12/20 04:47:45;;;;;;;9.98;4.18;;;14.00;62.80;;;;;;5009862;28;20447;-67
2020/12/20 04:50:15;;;;;;;8.27;3.83;;;14.10;62.40;;;;;;5009491;28;20512;-68
2020/12/20 04:52:46;;;;;;;14.52;4.18;;;14.00;62.40;;;;;;4993614;28;20049;-67
2020/12/20 04:55:23;;;;;;;13.52;3.60;;;;;;;;;;5010037;28;20150;-67
2020/12/20 04:58:13;;;;;;;11.90;4.03;;;;;;;;;;5009636;28;20033;-69
2020/12/20 05:00:40;;;;;;;9.80;3.78;;;;;;;;;;5009920;28;20100;-68
2020/12/20 05:03:06;;;;;;;18.02;4.35;;;;;;;;;;5045964;28;20047;-67
2020/12/20 05:05:33;;;;;;;7.32;3.20;;;;;;;;;;5030418;28;20075;-69
2020/12/20 05:07:59;;;;;;;13.68;4.03;;;;;;;;;;5044967;28;20068;-66
2020/12/20 05:10:39;;;;;;;13.73;4.00;;;14.20;61.60;;;;;;5050231;28;20053;-66
2020/12/20 05:13:07;;;;;;;16.60;3.83;;;14.40;61.70;;;;;;5050247;28;20036;-68
2020/12/20 05:15:34;;;;;;;7.60;3.63;;;;;;;;;;5051071;28;20032;-66
2020/12/20 05:18:19;;;;;;;9.32;4.05;;;;;;;;;;5051549;28;20032;-67
2020/12/20 05:20:55;;;;;;;;;;;14.00;62.60;;;;;;5050795;28;20025;-67
2020/12/20 05:23:28;;;;;;;9.45;3.88;;;13.90;63.20;;;;;;5066725;28;19958;-66
2020/12/20 05:26:05;;;;;;;12.77;3.83;;;14.00;62.90;;;;;;5050442;28;20028;-68
2020/12/20 05:28:32;;;;;;;10.57;3.60;;;;;;;;;;5050042;28;20052;-67
2020/12/20 05:31:08;;;;;;;12.13;3.25;;;13.80;63.10;;;;;;5049991;28;20057;-66
2020/12/20 05:33:58;;;;;;;11.10;3.58;;;13.80;63.60;;;;;;5051002;28;20029;-67
2020/12/20 05:36:32;;;;;;;15.52;4.18;;;;;;;;;;5034445;28;20087;-67
2020/12/20 05:39:29;;;;;;;9.32;3.45;;;;;;;;;;5049961;28;20033;-66
2020/12/20 05:42:06;;;;;;;12.38;3.95;;;13.70;62.80;;;;;;5049802;28;20107;-66
2020/12/20 05:44:32;;;;;;;12.63;4.05;;;;;;;;;;5049847;28;20047;-68
2020/12/20 05:47:05;;;;;;;7.10;3.17;;;13.90;63.40;;;;;;5050090;28;20044;-68
2020/12/20 05:49:31;;;;;;;10.50;3.75;;;;;;;;;;5049857;28;20029;-66
2020/12/20 05:52:06;;;;;;;13.63;3.90;;;14.00;62.60;;;;;;5048033;28;20044;-68
2020/12/20 05:54:35;;;;;;;8.77;3.63;;;14.00;62.70;;;;;;5050630;28;20021;-68
2020/12/20 05:57:06;;;;;;;13.38;3.38;;;14.10;63.00;;;;;;5049631;28;20111;-67
2020/12/20 05:59:33;;;;;;;10.60;3.40;;;14.10;62.60;;;;;;5050640;28;20037;-67
2020/12/20 06:02:02;;;;;;;11.88;4.07;;;13.90;63.00;;;;;;5052116;28;20041;-67
2020/12/20 06:04:30;;;;;;;7.20;3.08;;;13.90;63.10;;;;;;5055018;28;20469;-68
2020/12/20 06:06:57;;;;;;;8.10;3.28;;;13.80;63.70;;;;;;5054864;28;20489;-68
2020/12/20 06:09:28;;;;;;;18.92;3.90;;;13.90;63.50;;;;;;5054812;28;20544;-66
2020/12/20 06:11:57;;;;;;;8.27;3.25;;;14.00;62.90;;;;;;5053191;28;20114;-68
2020/12/20 06:14:25;;;;;;;12.82;3.65;;;14.10;62.70;;;;;;5037027;28;20544;-67
2020/12/20 06:17:12;;;;;;;13.07;3.72;;;14.20;62.40;;;;;;5054861;28;20033;-67
2020/12/20 06:19:53;;;;;;;12.57;3.80;;;14.20;62.20;;;;;;5054945;28;20071;-66
2020/12/20 06:22:25;;;;;;;16.08;3.92;;;14.30;62.00;;;;;;5069943;28;20499;-65
2020/12/20 06:24:54;;;;;;;13.73;4.13;;;14.20;62.10;;;;;;5054597;28;20083;-66
2020/12/20 06:27:22;;;;;;;12.23;3.47;;;14.40;62.00;;;;;;5054456;28;20033;-66
2020/12/20 06:29:56;;;;;;;10.15;3.47;;;14.10;62.40;;;;;;5054665;28;20111;-65
2020/12/20 06:32:25;;;;;;;11.13;3.90;;;13.90;62.60;;;;;;5054118;28;20056;-67
2020/12/20 06:34:51;;;;;;;9.90;4.30;;;;;;;;;;5054094;28;20513;-67
2020/12/20 06:37:18;;;;;;;8.18;3.40;;;14.00;62.90;;;;;;5054255;28;20025;-65
2020/12/20 06:39:45;;;;;;;14.88;3.95;;;;;;;;;;5054340;28;20475;-67
2020/12/20 06:42:11;;;;;;;17.85;4.28;;;;;;;;;;5054303;28;20547;-67
2020/12/20 06:44:38;;;;;;;13.55;3.45;;;;;;;;;;5054002;28;20021;-66
2020/12/20 06:47:04;;;;;;;7.07;3.75;;;;;;;;;;5050110;28;20116;-66
2020/12/20 06:49:39;;;;;;;15.82;3.30;;;13.80;62.70;;;;;;5053758;28;20025;-66
2020/12/20 06:52:17;;;;;;;12.90;4.22;;;13.90;62.40;;;;;;5051999;28;20024;-66
2020/12/20 06:55:04;;;;;;;8.80;3.30;;;14.00;61.90;;;;;;5052554;28;20045;-65
2020/12/20 06:57:30;;;;;;;14.48;3.80;;;;;;;;;;5053666;28;20502;-67
2020/12/20 06:59:57;;;;;;;14.57;3.30;;;;;;;;;;5052379;28;20039;-66
2020/12/20 07:02:41;;;;;;;12.55;3.67;;;14.20;61.60;;;;;;5054010;28;20025;-68
2020/12/20 07:05:40;;;;;;;11.10;5.00;;;14.00;61.90;;;;;;5053411;28;20492;-67
2020/12/20 07:08:21;;;;;;;15.15;4.15;;;14.00;61.90;;;;;;5053470;28;20048;-67
2020/12/20 07:10:55;;;;;;;4.93;3.28;;;14.20;61.90;;;;;;5053497;28;20045;-67
2020/12/20 07:13:32;;;;;;;8.02;4.07;;;14.20;61.60;;;;;;5053175;28;20033;-66
2020/12/20 07:16:06;;;;;;;7.05;4.38;;;14.20;61.80;;;;;;5053365;28;20017;-67
2020/12/20 07:18:42;;;;;;;11.07;3.65;;;14.20;61.40;;;;;;5053500;28;20032;-68
2020/12/20 07:21:37;;;;;;;18.77;4.40;;;14.10;61.60;;;;;;5056935;28;20446;-67
2020/12/20 07:24:17;;;;;;;8.43;2.80;;;14.00;62.20;;;;;;4986137;28;20051;-67
2020/12/20 07:26:51;;;;;;;12.10;3.50;;;14.00;61.80;;;;;;4991771;28;20509;-68
2020/12/20 07:29:18;;;;;;;10.75;3.38;;;;;;;;;;4991489;28;20050;-68
2020/12/20 07:31:49;;;;;;;15.90;4.03;;;14.20;61.60;;;;;;4991549;28;20159;-68
2020/12/20 07:34:15;;;;;;;15.13;4.00;;;;;;;;;;4991450;28;20042;-68
2020/12/20 07:36:42;;;;;;;11.00;3.60;;;;;;;;;;4991579;28;20031;-66
2020/12/20 07:39:08;;;;;;;10.20;4.25;;;;;;;;;;4991474;28;20058;-68
2020/12/20 07:41:35;;;;;;;17.02;4.38;;;;;;;;;;4991684;28;20046;-67
2020/12/20 07:44:11;;;;;;;7.90;3.53;;;14.10;61.90;;;;;;4991053;28;20053;-68
2020/12/20 07:46:39;;;;;;;11.90;4.07;;;13.90;62.30;;;;;;4991672;28;20030;-68
2020/12/20 07:49:07;;;;;;;13.55;3.28;;;13.90;62.70;;;;;;4991475;28;20046;-68
2020/12/20 07:51:33;;;;;;;10.13;3.65;;;;;;;;;;4990747;28;20043;-68
2020/12/20 07:54:01;;;;;;;10.30;3.33;;;13.70;63.00;;;;;;4990921;28;20073;-67
2020/12/20 07:56:32;;;;;;;9.05;3.75;;;13.70;62.60;;;;;;4991175;28;20037;-67
2020/12/20 07:59:03;;;;;;;11.10;3.60;;;13.70;62.90;;;;;;4991058;28;20044;-67
2020/12/20 08:01:29;;;;;;;12.60;4.15;;;;;;;;;;5024354;28;20033;-69
2020/12/20 08:04:01;;;;;;;10.43;3.63;;;13.70;63.00;;;;;;5052493;28;20041;-68
2020/12/20 08:06:27;;;;;;;12.15;3.85;;;;;;;;;;5052323;28;20029;-66
2020/12/20 08:09:01;;;;;;;9.02;3.65;;;14.00;61.90;;;;;;5052756;28;20092;-68
2020/12/20 08:11:28;;;;;;;7.47;3.28;;;;;;;;;;5052039;28;20055;-68
2020/12/20 08:13:55;;;;;;;8.88;3.55;;;14.10;61.50;;;;;;5052351;28;20028;-68
2020/12/20 08:16:24;;;;;;;;;;;14.10;61.90;;;;;;5053176;28;20033;-67
2020/12/20 08:18:57;;;;;;;10.18;3.40;;;13.90;61.70;;;;;;5038660;28;19908;-67
2020/12/20 08:21:36;;;;;;;14.07;4.43;;;13.90;62.30;;;;;;5052283;28;20028;-67
2020/12/20 08:24:03;;;;;;;8.45;3.33;;;;;;;;;;5038576;28;20044;-68
2020/12/20 08:26:33;;;;;;;11.02;3.63;;;13.80;62.50;;;;;;5051903;28;20426;-67
2020/12/20 08:28:59;;;;;;;16.48;4.10;;;13.80;62.40;;;;;;5052414;28;20119;-67
2020/12/20 08:31:32;;;;;;;17.77;3.80;;;14.00;62.20;;;;;;5052493;28;20045;-66
2020/12/20 08:33:59;;;;;;;16.27;3.80;;;14.00;61.80;;;;;;5051645;28;20025;-68
2020/12/20 08:36:26;;;;;;;10.18;3.85;;;;;;;;;;5050185;28;20406;-65
2020/12/20 08:38:52;;;;;;;;;;;14.10;61.60;;;;;;5034132;28;20060;-67
2020/12/20 08:41:28;;;;;;;15.43;3.47;;;14.10;62.10;;;;;;5051918;28;19919;-68
2020/12/20 08:44:25;;;;;;;14.57;3.47;;;13.90;62.50;;;;;;5051872;28;20036;-68
2020/12/20 08:46:52;;;;;;;14.73;3.60;;;;;;;;;;5049827;28;20053;-67
2020/12/20 08:49:20;;;;;;;11.85;4.10;;;13.80;62.40;;;;;;5051614;28;20040;-67
2020/12/20 08:51:47;;;;;;;7.75;3.45;;;13.90;62.10;;;;;;5051189;28;20346;-67
2020/12/20 08:54:23;;;;;;;16.48;4.25;;;14.00;62.20;;;;;;5051594;28;20029;-66
2020/12/20 08:56:53;;;;;;;20.30;4.15;;;13.70;62.70;;;;;;5050479;28;20115;-68
2020/12/20 08:59:30;;;;;;;12.30;3.55;;;13.80;62.80;;;;;;5051218;28;20043;-67
2020/12/20 09:01:58;;;;;;;6.55;3.30;;;13.90;62.80;;;;;;5045893;28;20026;-67
2020/12/20 09:04:26;;;;;;;17.40;4.30;;;14.00;62.10;;;;;;5052226;28;20032;-69
2020/12/20 09:07:08;;;;;;;15.65;3.83;;;14.20;61.90;;;;;;5048458;28;20087;-67
2020/12/20 09:09:35;;;;;;;9.45;3.63;;;14.30;61.50;;;;;;5051171;28;20037;-68
2020/12/20 09:12:12;;;;;;;17.10;4.03;;;14.30;61.20;;;;;;5055166;28;20135;-69
2020/12/20 09:14:39;;;;;;;12.30;3.80;;;;;;;;;;5048320;28;20033;-67
2020/12/20 09:17:05;;;;;;;15.32;4.03;;;;;;;;;;5049880;28;20491;-70
2020/12/20 09:19:31;;;;;;;18.58;3.80;;;;;;;;;;5049462;28;20102;-69
2020/12/20 09:21:57;;;;;;;12.52;3.78;;;;;;;;;;5051093;28;20032;-66
2020/12/20 09:24:25;;;;;;;12.00;3.60;;;;;;;;;;5050251;28;20028;-68
2020/12/20 09:26:59;;;;;;;6.38;3.10;;;14.20;61.50;;;;;;5050676;28;20423;-67
2020/12/20 09:29:26;;;;;;;17.50;3.88;;;14.00;62.50;;;;;;5051131;28;20066;-68
2020/12/20 09:31:53;;;;;;;10.13;3.63;;;13.90;63.00;;;;;;5049573;28;20052;-66
2020/12/20 09:34:39;;;;;;;16.20;3.75;;;14.00;63.00;;;;;;5051202;28;20373;-67
2020/12/20 09:37:06;;;;;;;17.67;4.13;;;;;;;;;;5050447;28;20037;-68
2020/12/20 09:39:32;;;;;;;10.05;3.60;;;;;;;;;;5049213;28;20070;-69
2020/12/20 09:41:58;;;;;;;14.85;4.63;;;;;;;;;;5050875;28;20531;-66
2020/12/20 09:44:24;;;;;;;10.48;4.00;;;;;;;;;;5050919;28;20039;-68
2020/12/20 09:46:52;;;;;;;10.45;3.42;;;;;;;;;;5051158;28;20064;-68
2020/12/20 09:49:21;;;;;;;11.48;3.90;;;;;;;;;;5031149;28;20594;-67
2020/12/20 09:51:51;;;;;;;14.32;3.30;;;;;;;;;;5050749;28;20541;-67
2020/12/20 09:54:17;;;;;;;18.98;4.38;;;;;;;;;;5050992;28;20475;-69
2020/12/20 09:56:44;;;;;;;8.95;3.67;;;;;;;;;;5037146;28;20064;-68
2020/12/20 09:59:10;;;;;;;12.52;4.00;;;;;;;;;;5050961;28;20071;-69
2020/12/20 10:01:36;;;;;;;15.25;4.13;;;;;;;;;;5050715;28;20147;-68
2020/12/20 10:04:03;;;;;;;17.33;3.60;;;;;;;;;;5050916;28;20033;-69
2020/12/20 10:06:30;;;;;;;9.80;3.40;;;;;;;;;;5050167;28;20407;-68
2020/12/20 10:08:56;;;;;;;16.70;3.83;;;;;;;;;;5050462;28;20078;-67
2020/12/20 10:11:23;;;;;;;14.73;4.05;;;;;;;;;;5050256;28;20442;-69
2020/12/20 10:13:49;;;;;;;12.93;3.65;;;;;;;;;;5050233;28;20041;-69
2020/12/20 10:16:19;;;;;;;10.20;3.50;;;14.10;61.80;;;;;;5036790;28;20065;-69
2020/12/20 10:18:45;;;;;;;14.38;4.18;;;;;;;;;;5049056;28;20040;-68
2020/12/20 10:21:15;;;;;;;15.52;4.22;;;14.20;61.90;;;;;;5050259;28;20107;-67
2020/12/20 10:23:41;;;;;;;12.60;4.03;;;;;;;;;;5049866;28;20055;-68
2020/12/20 10:26:11;;;;;;;24.73;5.63;;;14.00;61.80;;;;;;5050062;28;20115;-67
2020/12/20 10:28:38;;;;;;;13.65;3.72;;;14.10;61.80;;;;;;5049757;28;20032;-68
2020/12/20 10:31:03;;;;;;;;;;;14.10;62.30;;;;;;5050470;28;20047;-69
2020/12/20 10:33:30;;;;;;;11.05;3.97;;;;;;;;;;5048562;28;19912;-68
2020/12/20 10:35:56;;;;;;;14.90;3.85;;;;;;;;;;5048605;28;20494;-68
2020/12/20 10:38:22;;;;;;;17.85;4.53;;;;;;;;;;5049944;28;20033;-68
2020/12/20 10:40:48;;;;;;;13.68;4.32;;;;;;;;;;5050352;28;20045;-68
2020/12/20 10:43:15;;;;;;;14.23;3.40;;;;;;;;;;5049806;28;20079;-68
2020/12/20 10:45:41;;;;;;;17.63;4.13;;;;;;;;;;5050377;28;20040;-70
2020/12/20 10:48:07;;;;;;;9.52;4.30;;;;;;;;;;5051021;28;20445;-69
2020/12/20 10:50:34;;;;;;;15.82;4.45;;;;;;;;;;5053937;28;20388;-67
2020/12/20 10:53:00;;;;;;;16.42;4.55;;;;;;;;;;5053558;28;20170;-69
2020/12/20 10:55:26;;;;;;;11.02;4.18;;;;;;;;;;5053962;28;20037;-69
2020/12/20 10:57:52;;;;;;;12.98;3.53;;;;;;;;;;5053776;28;20032;-70
2020/12/20 11:00:19;;;;;;;12.60;3.92;;;;;;;;;;5053629;28;20029;-67
2020/12/20 11:02:45;;;;;;;14.55;4.07;;;;;;;;;;5016067;28;20036;-69
2020/12/20 11:05:11;;;;;;;13.43;4.00;;;;;;;;;;5051794;28;20060;-69
2020/12/20 11:07:38;;;;;;;12.85;3.33;;;;;;;;;;5053376;28;20459;-69
2020/12/20 11:10:04;;;;;;;12.80;3.67;;;;;;;;;;5052425;28;20064;-70
2020/12/20 11:12:30;;;;;;;12.45;3.95;;;;;;;;;;5053775;28;20040;-67
2020/12/20 11:14:56;;;;;;;16.13;4.57;;;;;;;;;;5053441;28;20025;-69
2020/12/20 11:17:23;;;;;;;12.43;3.63;;;;;;;;;;5053632;28;20072;-69
2020/12/20 11:19:48;;;;;;;13.05;3.78;;;15.80;56.70;;;;;;5053363;28;20482;-68
2020/12/20 11:22:15;;;;;;;12.83;3.97;;;;;;;;;;5052862;28;20021;-69
2020/12/20 11:24:41;;;;;;;13.38;4.22;;;;;;;;;;5053023;28;20448;-68
2020/12/20 11:27:07;;;;;;;17.55;3.88;;;;;;;;;;5053171;28;20033;-67
2020/12/20 11:29:33;;;;;;;16.45;4.22;;;;;;;;;;5053088;28;20036;-69
2020/12/20 11:32:00;;;;;;;18.55;4.43;;;;;;;;;;5052926;28;20041;-70
2020/12/20 11:34:26;;;;;;;18.98;4.65;;;;;;;;;;5053220;28;20112;-68
2020/12/20 11:36:52;;;;;;;25.20;4.75;;;;;;;;;;5052742;28;20033;-70
2020/12/20 11:39:22;;;;;;;17.95;5.03;;;;;;;;;;5052805;28;20033;-69
2020/12/20 11:41:49;;;;;;;9.23;3.40;;;;;;;;;;5052858;28;20041;-69
2020/12/20 11:44:15;;;;;;;11.27;3.55;;;;;;;;;;5052395;28;20494;-67
2020/12/20 11:46:42;;;;;;;14.27;4.07;;;;;;;;;;5052679;28;20021;-66
2020/12/20 11:49:08;;;;;;;16.77;4.35;;;;;;;;;;5052754;28;20120;-67
2020/12/20 11:51:34;;;;;;;19.33;4.95;;;16.00;55.80;;;;;;5052284;28;20395;-68
2020/12/20 11:54:00;;;;;;;17.03;4.43;;;;;;;;;;5052624;28;20041;-68
2020/12/20 11:56:26;;;;;;;21.58;4.57;;;16.20;55.60;;;;;;5052696;28;20032;-66
2020/12/20 11:58:53;;;;;;;10.88;3.60;;;;;;;;;;5052146;28;20039;-68
2020/12/20 12:01:27;;;;;;;12.43;3.45;;;16.10;55.30;;;;;;5052030;28;20025;-66
2020/12/20 12:03:54;;;;;;;15.52;4.00;;;;;;;;;;5051474;28;20028;-67
2020/12/20 12:06:20;;;;;;;18.98;4.32;;;;;;;;;;5051937;28;20048;-67
2020/12/20 12:08:46;;;;;;;17.08;3.80;;;16.30;54.80;;;;;;5052435;28;20102;-68
2020/12/20 12:11:22;;;;;;;16.25;4.40;;;16.10;55.20;;;;;;5052201;28;20095;-68
2020/12/20 12:13:48;;;;;;;12.27;3.38;;;16.00;54.80;;;;;;5051267;28;20112;-69
2020/12/20 12:16:19;;;;;;;17.92;4.70;;;16.10;55.30;;;;;;5052277;28;20086;-67
2020/12/20 12:18:45;;;;;;;19.35;4.63;;;;;;;;;;5051857;28;20488;-67
2020/12/20 12:21:14;;;;;;;11.68;3.85;;;16.30;54.50;;;;;;5051946;28;20384;-68
2020/12/20 12:23:41;;;;;;;23.45;4.50;;;;;;;;;;5052374;28;20037;-66
2020/12/20 12:26:07;;;;;;;19.17;4.40;;;16.30;54.10;;;;;;5052412;28;20506;-67
2020/12/20 12:28:33;;;;;;;13.02;3.85;;;16.40;54.40;;;;;;5051637;28;20033;-68
2020/12/20 12:30:58;;;;;;;22.13;5.07;;;16.40;54.10;;;;;;5066625;28;20099;-68
2020/12/20 12:33:24;;;;;;;17.77;4.90;;;16.60;53.60;;;;;;5051106;28;20087;-69
2020/12/20 12:35:50;;;;;;;23.93;4.30;;;16.50;53.50;;;;;;5051182;28;20905;-69
2020/12/20 12:38:16;;;;;;;20.30;4.17;;;;;;;;;;5052206;28;20113;-69
2020/12/20 12:40:43;;;;;;;18.10;4.22;;;;;;;;;;5050348;28;20032;-68
2020/12/20 12:43:09;;;;;;;12.57;4.15;;;;;;;;;;5052001;28;20037;-69
2020/12/20 12:45:35;;;;;;;12.63;4.25;;;;;;;;;;5051507;28;20036;-69
2020/12/20 12:48:01;;;;;;;21.13;4.45;;;15.80;55.20;;;;;;5051448;28;20090;-70
2020/12/20 12:50:28;;;;;;;17.13;4.35;;;;;;;;;;5051499;28;20116;-68
2020/12/20 12:52:53;;;;;;;15.27;4.28;;;15.70;55.30;;;;;;5051597;28;20075;-69
2020/12/20 12:55:20;;;;;;;17.20;4.33;;;;;;;;;;5051373;28;20109;-69
2020/12/20 12:57:46;;;;;;;16.88;4.05;;;;;;;;;;5051529;28;20037;-66
2020/12/20 13:00:12;;;;;;;20.42;4.28;;;15.60;55.70;;;;;;5051529;28;20048;-68
2020/12/20 13:02:38;;;;;;;21.43;4.43;;;;;;;;;;5047264;28;20053;-68
2020/12/20 13:05:04;;;;;;;14.57;4.20;;;16.00;54.30;;;;;;5050023;28;20552;-67
2020/12/20 13:07:30;;;;;;;13.23;4.27;;;;;;;;;;5050961;28;20025;-69
2020/12/20 13:09:56;;;;;;;26.88;4.45;;;;;;;;;;5050890;28;20488;-70
2020/12/20 13:12:22;;;;;;;15.98;4.55;;;;;;;;;;5050287;28;20064;-69
2020/12/20 13:14:49;;;;;;;20.33;4.20;;;;;;;;;;5050468;28;20044;-68
2020/12/20 13:17:15;;;;;;;15.65;4.20;;;;;;;;;;5049883;28;20060;-68
2020/12/20 13:19:41;;;;;;;17.30;3.95;;;16.20;53.60;;;;;;5050508;28;20072;-68
2020/12/20 13:22:07;;;;;;;18.87;4.40;;;;;;;;;;5050197;28;20163;-69
2020/12/20 13:24:33;;;;;;;16.88;3.92;;;16.30;52.70;;;;;;5049965;28;20040;-68
2020/12/20 13:26:59;;;;;;;11.83;4.30;;;;;;;;;;5050110;28;20123;-69
2020/12/20 13:29:25;;;;;;;19.55;5.50;;;;;;;;;;5048857;28;20044;-68
2020/12/20 13:31:52;;;;;;;23.35;4.40;;;;;;;;;;5049389;28;20069;-68
2020/12/20 13:34:17;;;;;;;16.33;4.65;;;16.10;52.60;;;;;;5050112;28;20044;-69
2020/12/20 13:36:44;;;;;;;15.80;4.63;;;;;;;;;;5049844;28;20024;-68
2020/12/20 13:39:10;;;;;;;19.35;4.20;;;;;;;;;;5048899;28;20558;-68
2020/12/20 13:41:36;;;;;;;14.85;3.50;;;;;;;;;;5050397;28;20094;-68
2020/12/20 13:44:03;;;;;;;19.00;4.38;;;;;;;;;;5050466;28;20070;-69
2020/12/20 13:46:29;;;;;;;10.65;3.45;;;;;;;;;;5049279;28;20025;-70
2020/12/20 13:48:55;;;;;;;12.63;4.05;;;;;;;;;;5050537;28;20029;-68
2020/12/20 13:51:21;;;;;;;13.77;4.10;;;;;;;;;;5050007;28;20426;-70
2020/12/20 13:53:47;;;;;;;20.50;4.25;;;15.90;53.40;;;;;;5050538;28;20406;-68
2020/12/20 13:56:13;;;;;;;15.77;4.20;;;15.90;53.40;;;;;;5050824;28;20028;-68
2020/12/20 13:58:42;;;;;;;20.47;4.50;;;;;;;;;;5050642;28;20217;-67
2020/12/20 14:01:14;;;;;;;18.17;4.47;;;15.90;53.30;;;;;;5050256;28;20029;-68
2020/12/20 14:03:40;;;;;;;22.60;4.63;;;;;;;;;;5049125;28;20051;-68